sim
Sign-in with your pilot id or email,
or register
Callsign
Passwort

Schedule Details

Flight Number: OEO7971
Departure: Johannesburg OR Tambo International Airport (FAOR) at 09:00
Arrival: Munich Airport (EDDM) at 20:30

Weather Information
Getting current METAR information for FAOR 231700Z 31006KT CAVOK 18/07 Q1027 NOSIG
Getting current METAR information for EDDM 231650Z 26004KT 230V290 CAVOK 18/15 Q1009 NOSIG

Schedule Frequency

Route Map